Main page
METAR-TAF:

METAR-TAF

Airports :

Nador International Airport

Nador, Morocco

latitude: 34-59-20N, longitude: 003-01-42W, elevation: 175 m

Current weather observation

The report was made 1 hour and 0 minutes ago, at 19:00 UTC
Wind 7 kt from the East/Northeast
Temperature 10°C
Humidity 71%
Pressure 1024 hPa
Visibility 10 km or more
no clouds below 1500 m and no cumulonimbus

METAR: GMMW 211900Z 06007KT CAVOK 10/05 Q1024 NOSIG

Time: 21:00 (20:00 UTC)

Forecast

The report was made 3 hours and 0 minutes ago, at 17:00 UTC
Forecast valid from 21 at 18 UTC to 22 at 24 UTC
Wind 10 kt from the East/Northeast
Visibility: 8000 m
Probability 30%
from 22 at 00 UTC to 22 at 07 UTC
Visibility: 3000 m
mist

TAF: GMMW 211700Z 2118/2224 06010KT 8000 NSC PROB30 2200/2207 3000 BR

Weather observations and forecasts of more than 4000 airports (METAR and TAF reports).

The available stations are represented by yellow and red dots on the map.

Hover mouse over dot to see the name of the station.

Then click to see weather observations and forecasts.

To change the map : click on the green buttons with a black cross to zoom in, on the green button with a dash to zoom out, or on the green arrows for adjacent maps.


METAR-TAF: